createdAt,value
2023-03-11T00:37:41.484Z,26.22
2023-03-11T00:39:41.421Z,26.21
2023-03-11T00:40:41.379Z,26.21
2023-03-11T00:41:41.333Z,26.19
2023-03-11T00:42:41.294Z,26.21
2023-03-11T00:43:41.261Z,26.18
2023-03-11T00:44:41.224Z,26.21
2023-03-11T00:45:41.192Z,26.22
2023-03-11T00:46:41.160Z,26.21
2023-03-11T00:47:41.109Z,26.21
2023-03-11T00:48:41.078Z,26.22
2023-03-11T00:49:41.058Z,26.21
2023-03-11T00:50:41.016Z,26.19
2023-03-11T00:51:40.972Z,26.22
2023-03-11T00:52:40.946Z,26.21
2023-03-11T00:53:40.914Z,26.18
2023-03-11T00:54:40.874Z,26.21
2023-03-11T00:55:40.840Z,26.19
2023-03-11T00:56:40.813Z,26.24
2023-03-11T00:57:40.774Z,26.18
2023-03-11T00:58:40.736Z,26.25
2023-03-11T00:59:40.700Z,26.17
2023-03-11T01:00:40.652Z,26.18
2023-03-11T01:01:40.697Z,26.21
2023-03-11T01:02:40.618Z,26.21
2023-03-11T01:03:40.579Z,26.21
2023-03-11T01:04:40.626Z,26.19
2023-03-11T01:05:40.514Z,26.19
2023-03-11T01:06:45.683Z,26.19
2023-03-11T01:08:40.392Z,26.22
2023-03-11T01:09:40.379Z,26.19
2023-03-11T01:10:40.324Z,26.19
2023-03-11T01:11:40.331Z,26.19
2023-03-11T01:12:40.264Z,26.18
2023-03-11T01:13:40.223Z,26.19
2023-03-11T01:14:40.192Z,26.21
2023-03-11T01:15:40.204Z,26.19
2023-03-11T01:16:40.133Z,26.19
2023-03-11T01:17:40.089Z,26.19
2023-03-11T01:18:40.058Z,26.19
2023-03-11T01:19:40.026Z,26.18
2023-03-11T01:20:40.010Z,26.19
2023-03-11T01:21:39.940Z,26.18
2023-03-11T01:22:39.899Z,26.17
2023-03-11T01:23:39.859Z,26.19
2023-03-11T01:24:39.821Z,26.19
2023-03-11T01:25:39.792Z,26.21
2023-03-11T01:26:39.749Z,26.18
2023-03-11T01:27:39.732Z,26.19
2023-03-11T01:28:39.681Z,26.18
2023-03-11T01:29:39.641Z,26.19
2023-03-11T01:30:39.604Z,26.19
2023-03-11T01:31:39.570Z,26.18
2023-03-11T01:32:39.620Z,26.18
2023-03-11T01:33:39.500Z,26.18
2023-03-11T01:34:39.463Z,26.18
2023-03-11T01:35:39.442Z,26.19
2023-03-11T01:36:39.368Z,26.17
2023-03-11T01:37:39.331Z,26.15
2023-03-11T01:38:39.306Z,26.18
2023-03-11T01:39:39.270Z,26.19
2023-03-11T01:40:39.233Z,26.18
2023-03-11T01:41:39.196Z,26.18
2023-03-11T01:42:39.149Z,26.19
2023-03-11T01:43:39.158Z,26.19
2023-03-11T01:44:39.074Z,26.21
2023-03-11T01:45:39.053Z,26.18
2023-03-11T01:46:39.061Z,26.19
2023-03-11T01:47:38.981Z,26.19
2023-03-11T01:48:38.945Z,26.19
2023-03-11T01:49:38.902Z,26.18
2023-03-11T01:50:38.854Z,26.18
2023-03-11T01:51:38.863Z,26.18
2023-03-11T01:52:38.789Z,26.19
2023-03-11T01:53:38.752Z,26.18
2023-03-11T01:54:38.716Z,26.19
2023-03-11T01:55:38.682Z,26.19
2023-03-11T01:56:38.643Z,26.18
2023-03-11T01:57:38.619Z,26.17
2023-03-11T01:58:38.584Z,26.19
2023-03-11T01:59:38.552Z,26.22
2023-03-11T02:00:38.516Z,26.19
2023-03-11T02:01:38.502Z,26.19
2023-03-11T02:02:38.537Z,26.17
2023-03-11T02:03:38.424Z,26.21
2023-03-11T02:04:38.397Z,26.22
2023-03-11T02:05:38.357Z,26.19
2023-03-11T02:06:38.338Z,26.19
2023-03-11T02:07:38.295Z,26.19
2023-03-11T02:08:38.263Z,26.19
2023-03-11T02:09:38.229Z,26.19
2023-03-11T02:10:38.202Z,26.19
2023-03-11T02:11:38.170Z,26.18
2023-03-11T02:12:38.139Z,26.19
2023-03-11T02:13:38.125Z,26.19
2023-03-11T02:14:38.093Z,26.19
2023-03-11T02:15:39.949Z,26.22
2023-03-11T02:16:38.029Z,26.21
2023-03-11T02:17:38.003Z,26.21
2023-03-11T02:18:37.966Z,26.19
2023-03-11T02:19:37.947Z,26.18
2023-03-11T02:20:37.884Z,26.21
2023-03-11T02:21:37.860Z,26.19
2023-03-11T02:22:37.817Z,26.18
2023-03-11T02:23:37.780Z,26.17
2023-03-11T02:24:37.742Z,26.18
2023-03-11T02:25:37.711Z,26.19
2023-03-11T02:26:37.667Z,26.18
2023-03-11T02:27:37.637Z,26.15
2023-03-11T02:28:37.607Z,26.18
2023-03-11T02:29:37.570Z,26.17
2023-03-11T02:30:37.596Z,26.18
2023-03-11T02:31:37.649Z,26.18
2023-03-11T02:32:37.672Z,26.18
2023-03-11T02:33:37.659Z,26.18
2023-03-11T02:34:37.679Z,26.17
2023-03-11T02:35:37.726Z,26.18
2023-03-11T02:36:37.752Z,26.17
2023-03-11T02:37:37.771Z,26.19
2023-03-11T02:38:37.791Z,26.19
2023-03-11T02:39:37.813Z,26.17
2023-03-11T02:40:37.840Z,26.17
2023-03-11T02:41:37.861Z,26.18
2023-03-11T02:42:37.889Z,26.17
2023-03-11T02:43:37.916Z,26.18
2023-03-11T02:44:37.922Z,26.17
2023-03-11T02:45:37.961Z,26.17
2023-03-11T02:46:38.030Z,26.18
2023-03-11T02:47:38.002Z,26.17
2023-03-11T02:48:38.016Z,26.17
2023-03-11T02:49:38.036Z,26.18
2023-03-11T02:50:38.064Z,26.18
2023-03-11T02:51:38.082Z,26.18
2023-03-11T02:52:38.094Z,26.18
2023-03-11T02:53:38.134Z,26.17
2023-03-11T02:54:38.134Z,26.17
2023-03-11T02:55:38.159Z,26.18
2023-03-11T02:56:38.170Z,26.17
2023-03-11T02:57:38.197Z,26.17
2023-03-11T02:58:38.246Z,26.15
2023-03-11T02:59:38.247Z,26.15
2023-03-11T03:00:38.341Z,26.19
2023-03-11T03:01:38.292Z,26.17
2023-03-11T03:02:38.312Z,26.15
2023-03-11T03:03:38.344Z,26.15
2023-03-11T03:04:38.364Z,26.15
2023-03-11T03:05:38.394Z,26.17
2023-03-11T03:06:38.401Z,26.17
2023-03-11T03:07:38.439Z,26.17
2023-03-11T03:08:38.452Z,26.18
2023-03-11T03:09:38.473Z,26.17
2023-03-11T03:10:38.492Z,26.17
2023-03-11T03:11:38.510Z,26.17
2023-03-11T03:12:38.527Z,26.15
2023-03-11T03:13:38.549Z,26.17
2023-03-11T03:14:38.577Z,26.17
2023-03-11T03:15:38.606Z,26.17
2023-03-11T03:16:38.788Z,26.19
2023-03-11T03:17:38.733Z,26.15
2023-03-11T03:18:38.684Z,26.15
2023-03-11T03:19:38.709Z,26.17
2023-03-11T03:20:38.720Z,26.18
2023-03-11T03:21:38.755Z,26.17
2023-03-11T03:22:38.784Z,26.14
2023-03-11T03:23:38.805Z,26.17
2023-03-11T03:24:38.847Z,26.15
2023-03-11T03:25:38.856Z,26.17
2023-03-11T03:26:38.890Z,26.17
2023-03-11T03:27:38.910Z,26.15
2023-03-11T03:28:38.932Z,26.12
2023-03-11T03:29:38.951Z,26.14
2023-03-11T03:30:38.975Z,26.14
2023-03-11T03:31:39.067Z,26.14
2023-03-11T03:32:39.108Z,26.17
2023-03-11T03:33:39.056Z,26.15
2023-03-11T03:34:39.082Z,26.17
2023-03-11T03:35:39.119Z,26.18
2023-03-11T03:36:39.130Z,26.14
2023-03-11T03:37:39.153Z,26.15
2023-03-11T03:38:39.152Z,26.17
2023-03-11T03:39:39.203Z,26.15
2023-03-11T03:40:39.208Z,26.14
2023-03-11T03:41:39.247Z,26.17
2023-03-11T03:42:39.271Z,26.12
2023-03-11T03:43:39.274Z,26.12
2023-03-11T03:44:39.309Z,26.15
2023-03-11T03:45:39.382Z,26.15
2023-03-11T03:46:39.351Z,26.15
2023-03-11T03:47:39.373Z,26.12
2023-03-11T03:48:39.399Z,26.15
2023-03-11T03:49:39.425Z,26.12
2023-03-11T03:50:39.445Z,26.14
2023-03-11T03:51:39.472Z,26.12
2023-03-11T03:52:39.504Z,26.12
2023-03-11T03:53:39.520Z,26.15
2023-03-11T03:54:39.552Z,26.14
2023-03-11T03:55:39.559Z,26.12
2023-03-11T03:56:39.581Z,26.14
2023-03-11T03:57:39.593Z,26.14
2023-03-11T03:58:39.650Z,26.12
2023-03-11T03:59:39.642Z,26.14
2023-03-11T04:00:39.670Z,26.14
2023-03-11T04:01:39.687Z,26.14
2023-03-11T04:02:39.832Z,26.11
2023-03-11T04:03:39.797Z,26.11
2023-03-11T04:04:39.746Z,26.12
2023-03-11T04:05:39.748Z,26.12
2023-03-11T04:06:39.796Z,26.11
2023-03-11T04:07:39.786Z,26.12
2023-03-11T04:08:39.822Z,26.14
2023-03-11T04:09:39.878Z,26.11
2023-03-11T04:10:39.866Z,26.09
2023-03-11T04:11:39.894Z,26.12
2023-03-11T04:12:39.894Z,26.12
2023-03-11T04:13:39.915Z,26.12
2023-03-11T04:14:39.933Z,26.11
2023-03-11T04:15:39.958Z,26.11
2023-03-11T04:16:40.038Z,26.12
2023-03-11T04:17:40.017Z,26.12
2023-03-11T04:18:40.020Z,26.12
2023-03-11T04:19:40.057Z,26.11
2023-03-11T04:20:40.085Z,26.12
2023-03-11T04:21:40.102Z,26.11
2023-03-11T04:22:40.124Z,26.12
2023-03-11T04:23:40.139Z,26.11
2023-03-11T04:24:40.177Z,26.11
2023-03-11T04:25:40.176Z,26.09
2023-03-11T04:26:40.214Z,26.11
2023-03-11T04:27:40.228Z,26.14
2023-03-11T04:28:40.244Z,26.11
2023-03-11T04:29:40.265Z,26.12
2023-03-11T04:30:40.305Z,26.11
2023-03-11T04:31:40.302Z,26.11
2023-03-11T04:32:40.401Z,26.11
2023-03-11T04:33:40.343Z,26.09
2023-03-11T04:34:40.362Z,26.11
2023-03-11T04:35:40.414Z,26.09
2023-03-11T04:36:40.403Z,26.09
2023-03-11T04:37:40.416Z,26.09
2023-03-11T04:38:40.440Z,26.09
2023-03-11T04:39:40.455Z,26.11
2023-03-11T04:40:40.481Z,26.09
2023-03-11T04:41:40.492Z,26.09
2023-03-11T04:42:40.508Z,26.09
2023-03-11T04:43:40.522Z,26.11
2023-03-11T04:44:40.577Z,26.11
2023-03-11T04:45:40.562Z,26.11
2023-03-11T04:46:40.627Z,26.11
2023-03-11T04:47:40.604Z,26.11
2023-03-11T04:48:40.646Z,26.12
2023-03-11T04:49:40.649Z,26.08
2023-03-11T04:50:40.671Z,26.08
2023-03-11T04:51:40.687Z,26.09
2023-03-11T04:52:40.714Z,26.09
2023-03-11T04:53:40.739Z,26.08
2023-03-11T04:54:40.742Z,26.09
2023-03-11T04:55:40.781Z,26.09
2023-03-11T04:56:40.785Z,26.08
2023-03-11T04:57:40.816Z,26.08
2023-03-11T04:58:40.849Z,26.09
2023-03-11T04:59:40.859Z,26.11
2023-03-11T05:00:40.890Z,26.08
2023-03-11T05:01:40.978Z,26.11
2023-03-11T05:02:40.937Z,26.09
2023-03-11T05:03:40.957Z,26.07
2023-03-11T05:04:41.077Z,26.08
2023-03-11T05:05:41.036Z,26.08
2023-03-11T05:06:41.046Z,26.09
2023-03-11T05:07:41.079Z,26.09
2023-03-11T05:08:41.107Z,26.08
2023-03-11T05:09:41.142Z,26.09
2023-03-11T05:10:41.096Z,26.07
2023-03-11T05:11:41.048Z,26.05
2023-03-11T05:12:41.017Z,26.04
2023-03-11T05:13:40.980Z,26.05
2023-03-11T05:14:40.955Z,26.05
2023-03-11T05:15:40.955Z,26.02
2023-03-11T05:16:40.881Z,26.05
2023-03-11T05:17:40.824Z,26.07
2023-03-11T05:18:40.795Z,26.05
2023-03-11T05:19:40.754Z,26.04
2023-03-11T05:20:40.721Z,26.02
2023-03-11T05:21:40.681Z,26.05
2023-03-11T05:22:40.642Z,26.07
2023-03-11T05:23:40.593Z,26.04
2023-03-11T05:24:40.571Z,26.04
2023-03-11T05:25:40.505Z,26.04
2023-03-11T05:26:40.457Z,26.04
2023-03-11T05:27:40.411Z,26.05
2023-03-11T05:28:40.365Z,26.05
2023-03-11T05:29:40.317Z,26.04
2023-03-11T05:30:40.299Z,26.04
2023-03-11T05:31:40.253Z,26.05
2023-03-11T05:32:40.245Z,26.04
2023-03-11T05:33:40.149Z,26.02
2023-03-11T05:34:40.113Z,26.02
2023-03-11T05:35:40.087Z,26.04
2023-03-11T05:36:40.047Z,26.01
2023-03-11T05:37:39.973Z,26.02
2023-03-11T05:38:39.921Z,26.02
2023-03-11T05:39:39.898Z,26.01
2023-03-11T05:40:39.839Z,26.04
2023-03-11T05:41:39.793Z,26.04
2023-03-11T05:42:39.752Z,26.01
2023-03-11T05:43:39.721Z,26.05
2023-03-11T05:44:39.679Z,26.04
2023-03-11T05:45:39.637Z,26.05
2023-03-11T05:46:39.706Z,26.04
2023-03-11T05:47:39.581Z,26.07
2023-03-11T05:48:39.543Z,26.04
2023-03-11T05:49:39.518Z,26.04
2023-03-11T05:50:39.458Z,26.04
2023-03-11T05:51:39.439Z,26.04
2023-03-11T05:52:39.381Z,26.05
2023-03-11T05:53:39.354Z,26.07
2023-03-11T05:54:39.301Z,26.04
2023-03-11T05:55:39.248Z,26.05
2023-03-11T05:56:39.223Z,26.04
2023-03-11T05:57:39.177Z,26.05
2023-03-11T05:58:39.131Z,26.05
2023-03-11T05:59:39.083Z,26.04
2023-03-11T06:00:39.050Z,26.02
2023-03-11T06:01:39.020Z,26.04
2023-03-11T06:02:38.953Z,26.07
2023-03-11T06:03:38.958Z,26.02
2023-03-11T06:04:38.986Z,26.01
2023-03-11T06:05:38.842Z,26.02
2023-03-11T06:06:38.808Z,26.04
2023-03-11T06:07:38.751Z,26.04
2023-03-11T06:08:38.719Z,26.02
2023-03-11T06:09:38.682Z,26.04
2023-03-11T06:10:38.658Z,26.01
2023-03-11T06:11:38.618Z,26.01
2023-03-11T06:12:38.624Z,26.04
2023-03-11T06:13:38.524Z,26.02
2023-03-11T06:14:38.491Z,26.04
2023-03-11T06:15:38.464Z,26.02
2023-03-11T06:16:38.475Z,26.04
2023-03-11T06:17:38.370Z,26.04
2023-03-11T06:18:38.324Z,26.04
2023-03-11T06:19:38.303Z,26.05
2023-03-11T06:20:38.246Z,26.08
2023-03-11T06:21:38.225Z,26.05
2023-03-11T06:22:40.188Z,26.05
2023-03-11T06:23:38.127Z,26.04
2023-03-11T06:24:38.091Z,26.04
2023-03-11T06:25:38.046Z,26.07
2023-03-11T06:26:38.012Z,26.05
2023-03-11T06:27:37.984Z,26.01
2023-03-11T06:28:37.940Z,26.05
2023-03-11T06:29:37.909Z,26.05
2023-03-11T06:30:37.844Z,26.04
2023-03-11T06:31:37.808Z,26.05
2023-03-11T06:32:37.840Z,26.05
2023-03-11T06:33:37.729Z,26.05
2023-03-11T06:34:37.741Z,26.05
2023-03-11T06:35:37.791Z,26.04
2023-03-11T06:36:37.749Z,26.04
2023-03-11T06:37:37.765Z,26.05
2023-03-11T06:38:37.725Z,26.08
2023-03-11T06:39:37.679Z,26.05
2023-03-11T06:40:37.644Z,26.08
2023-03-11T06:41:37.610Z,26.07
2023-03-11T06:42:37.567Z,26.05
2023-03-11T06:43:37.514Z,26.05
2023-03-11T06:44:37.471Z,26.07
2023-03-11T06:45:37.450Z,26.07
2023-03-11T06:46:37.412Z,26.07
2023-03-11T06:47:37.359Z,26.05
2023-03-11T06:48:37.314Z,26.07
2023-03-11T06:49:37.264Z,26.09
2023-03-11T06:50:37.228Z,26.09
2023-03-11T06:51:37.185Z,26.08
2023-03-11T06:52:37.157Z,26.08
2023-03-11T06:53:37.119Z,26.09
2023-03-11T06:54:37.091Z,26.09
2023-03-11T06:55:37.051Z,26.08
2023-03-11T06:56:37.011Z,26.11
2023-03-11T06:57:36.960Z,26.08
2023-03-11T06:58:36.923Z,26.09
2023-03-11T06:59:36.867Z,26.11
2023-03-11T07:00:36.836Z,26.09
2023-03-11T07:01:36.813Z,26.09
2023-03-11T07:02:36.763Z,26.12
2023-03-11T07:03:36.713Z,26.11
2023-03-11T07:04:36.670Z,26.14
2023-03-11T07:05:36.641Z,26.11
2023-03-11T07:06:36.582Z,26.12
2023-03-11T07:07:36.544Z,26.11
2023-03-11T07:08:36.497Z,26.11
2023-03-11T07:09:36.463Z,26.14
2023-03-11T07:10:36.422Z,26.14
2023-03-11T07:11:36.365Z,26.14
2023-03-11T07:12:36.351Z,26.14
2023-03-11T07:13:36.300Z,26.14
2023-03-11T07:14:36.243Z,26.15
2023-03-11T07:15:36.203Z,26.12
2023-03-11T07:16:36.293Z,26.17
2023-03-11T07:17:36.168Z,26.17
2023-03-11T07:18:36.092Z,26.15
2023-03-11T07:19:36.037Z,26.17
2023-03-11T07:20:36.009Z,26.17
2023-03-11T07:21:35.958Z,26.17
2023-03-11T07:22:35.947Z,26.18
2023-03-11T07:23:35.945Z,26.17
2023-03-11T07:24:35.851Z,26.17
2023-03-11T07:25:35.810Z,26.19
2023-03-11T07:26:35.773Z,26.19
2023-03-11T07:27:35.741Z,26.19
2023-03-11T07:28:35.694Z,26.21
2023-03-11T07:29:35.650Z,26.21
2023-03-11T07:30:35.614Z,26.24
2023-03-11T07:31:35.592Z,26.21
2023-03-11T07:32:35.625Z,26.24
2023-03-11T07:33:35.496Z,26.22
2023-03-11T07:34:35.468Z,26.25
2023-03-11T07:35:35.459Z,26.26
2023-03-11T07:36:35.385Z,26.26
2023-03-11T07:37:35.349Z,26.26
2023-03-11T07:38:35.322Z,26.26
2023-03-11T07:39:35.297Z,26.29
2023-03-11T07:40:35.233Z,26.28
2023-03-11T07:41:35.201Z,26.26
2023-03-11T07:42:35.156Z,26.28
2023-03-11T07:43:35.109Z,26.34
2023-03-11T07:44:35.068Z,26.35
2023-03-11T07:45:35.026Z,26.34
2023-03-11T07:46:34.996Z,26.35
2023-03-11T07:47:34.962Z,26.38
2023-03-11T07:48:34.943Z,26.39
2023-03-11T07:49:34.870Z,26.42
2023-03-11T07:50:34.828Z,26.43
2023-03-11T07:51:34.784Z,26.45
2023-03-11T07:52:34.749Z,26.45
2023-03-11T07:53:34.703Z,26.46
2023-03-11T07:54:34.671Z,26.49
2023-03-11T07:55:34.616Z,26.49
2023-03-11T07:56:34.579Z,26.52
2023-03-11T07:57:34.531Z,26.55
2023-03-11T07:58:34.499Z,26.60
2023-03-11T07:59:34.463Z,26.57
2023-03-11T08:00:34.427Z,26.59
2023-03-11T08:01:34.396Z,26.57
2023-03-11T08:02:34.363Z,26.56
2023-03-11T08:03:34.335Z,26.56
2023-03-11T08:04:34.249Z,26.56
2023-03-11T08:05:34.207Z,26.53
2023-03-11T08:06:34.179Z,26.53
2023-03-11T08:07:34.118Z,26.53
2023-03-11T08:08:34.083Z,26.57
2023-03-11T08:09:34.037Z,26.59
2023-03-11T08:10:33.972Z,26.57
2023-03-11T08:11:33.934Z,26.62
2023-03-11T08:12:33.888Z,26.63
2023-03-11T08:13:33.859Z,26.67
2023-03-11T08:14:33.796Z,26.69
2023-03-11T08:15:33.786Z,26.69
2023-03-11T08:16:33.718Z,26.74
2023-03-11T08:17:33.676Z,26.76
2023-03-11T08:18:33.621Z,26.77
2023-03-11T08:19:33.572Z,26.74
2023-03-11T08:20:33.536Z,26.76
2023-03-11T08:21:33.484Z,26.74
2023-03-11T08:22:33.440Z,26.77
2023-03-11T08:23:33.429Z,26.74
2023-03-11T08:24:33.333Z,26.73
2023-03-11T08:25:33.284Z,26.74
2023-03-11T08:26:33.250Z,26.70
2023-03-11T08:27:33.198Z,26.69
2023-03-11T08:28:33.277Z,26.70
2023-03-11T08:29:33.105Z,26.66
2023-03-11T08:30:33.054Z,26.73
2023-03-11T08:31:33.068Z,26.73
2023-03-11T08:32:32.980Z,26.76
2023-03-11T08:33:32.924Z,26.80
2023-03-11T08:34:32.860Z,26.80
2023-03-11T08:35:32.845Z,26.83
2023-03-11T08:36:32.772Z,26.83
2023-03-11T08:37:32.728Z,26.83
2023-03-11T08:38:32.711Z,26.80
2023-03-11T08:39:32.634Z,26.80
2023-03-11T08:40:32.592Z,26.81
2023-03-11T08:41:32.540Z,26.81
2023-03-11T08:42:32.490Z,26.80
2023-03-11T08:43:32.455Z,26.79
2023-03-11T08:44:32.409Z,26.80
2023-03-11T08:45:32.363Z,26.81
2023-03-11T08:46:32.351Z,26.79
2023-03-11T08:47:32.269Z,26.79
2023-03-11T08:48:32.229Z,26.81
2023-03-11T08:49:32.176Z,26.81
2023-03-11T08:50:36.592Z,26.80
2023-03-11T08:51:33.078Z,26.84
2023-03-11T08:52:32.036Z,26.86
2023-03-11T08:53:32.006Z,26.83
2023-03-11T08:54:31.942Z,26.86
2023-03-11T08:55:31.899Z,26.84
2023-03-11T08:56:31.852Z,26.81
2023-03-11T08:57:31.847Z,26.84
2023-03-11T08:58:31.773Z,26.86
2023-03-11T08:59:31.712Z,26.84
2023-03-11T09:00:31.674Z,26.87
2023-03-11T09:01:31.616Z,26.87
2023-03-11T09:02:31.615Z,26.86
2023-03-11T09:03:31.587Z,26.89
2023-03-11T09:04:31.489Z,26.86
2023-03-11T09:05:31.472Z,26.89
2023-03-11T09:06:31.399Z,26.87
2023-03-11T09:07:31.368Z,26.86
2023-03-11T09:08:31.311Z,26.87
2023-03-11T09:09:31.271Z,26.87
2023-03-11T09:10:31.216Z,26.90
2023-03-11T09:11:31.181Z,26.90
2023-03-11T09:12:31.141Z,26.91
2023-03-11T09:13:31.100Z,26.90
2023-03-11T09:14:31.071Z,26.93
2023-03-11T09:15:30.989Z,26.91
2023-03-11T09:16:30.974Z,26.91
2023-03-11T09:17:30.903Z,26.93
2023-03-11T09:18:30.858Z,26.89
2023-03-11T09:19:30.819Z,26.90
2023-03-11T09:20:30.759Z,26.91
2023-03-11T09:21:30.729Z,26.90
2023-03-11T09:22:30.682Z,26.93
2023-03-11T09:23:30.633Z,26.93
2023-03-11T09:24:30.591Z,26.95
2023-03-11T09:25:30.554Z,26.95
2023-03-11T09:26:30.495Z,26.94
2023-03-11T09:27:30.467Z,26.97
2023-03-11T09:28:30.395Z,26.98
2023-03-11T09:29:30.356Z,26.95
2023-03-11T09:30:30.302Z,27.01
2023-03-11T09:31:30.275Z,27.00
2023-03-11T09:32:30.242Z,27.02
2023-03-11T09:33:30.171Z,27.02
2023-03-11T09:34:30.127Z,27.01
2023-03-11T09:35:30.105Z,27.02
2023-03-11T09:36:30.020Z,27.01
2023-03-11T09:37:29.972Z,27.02
2023-03-11T09:38:29.931Z,27.04
2023-03-11T09:39:29.901Z,27.04
2023-03-11T09:40:29.859Z,27.05
2023-03-11T09:41:29.811Z,27.07
2023-03-11T09:42:29.767Z,27.04
2023-03-11T09:43:29.725Z,27.04
2023-03-11T09:44:29.677Z,27.07
2023-03-11T09:45:29.637Z,27.05
2023-03-11T09:46:29.649Z,27.05
2023-03-11T09:47:29.539Z,27.07
2023-03-11T09:48:29.520Z,27.08
2023-03-11T09:49:29.478Z,27.08
2023-03-11T09:50:29.412Z,27.07
2023-03-11T09:51:29.368Z,27.08
2023-03-11T09:52:29.336Z,27.10
2023-03-11T09:53:29.310Z,27.08
2023-03-11T09:54:29.225Z,27.10
2023-03-11T09:55:29.171Z,27.08
2023-03-11T09:56:29.130Z,27.10
2023-03-11T09:57:29.080Z,27.11
2023-03-11T09:58:29.036Z,27.11
2023-03-11T09:59:29.006Z,27.12
2023-03-11T10:00:28.942Z,27.11
2023-03-11T10:01:28.881Z,27.15
2023-03-11T10:02:28.918Z,27.17
2023-03-11T10:03:28.781Z,27.14
2023-03-11T10:04:28.745Z,27.17
2023-03-11T10:05:28.674Z,27.17
2023-03-11T10:06:28.629Z,27.15
2023-03-11T10:07:28.577Z,27.17
2023-03-11T10:08:28.519Z,27.18
2023-03-11T10:09:28.477Z,27.18
2023-03-11T10:10:28.422Z,27.18
2023-03-11T10:11:28.389Z,27.24
2023-03-11T10:12:28.320Z,27.24
2023-03-11T10:13:28.279Z,27.27
2023-03-11T10:14:28.241Z,27.27
2023-03-11T10:15:28.212Z,27.27
2023-03-11T10:16:28.179Z,27.27
2023-03-11T10:17:28.090Z,27.28
2023-03-11T10:18:28.027Z,27.29
2023-03-11T10:19:27.988Z,27.28
2023-03-11T10:20:27.945Z,27.27
2023-03-11T10:21:27.886Z,27.28
2023-03-11T10:22:27.838Z,27.28
2023-03-11T10:23:27.791Z,27.31
2023-03-11T10:24:27.756Z,27.32
2023-03-11T10:25:27.690Z,27.32
2023-03-11T10:26:27.650Z,27.35
2023-03-11T10:27:27.591Z,27.35
2023-03-11T10:28:27.550Z,27.37
2023-03-11T10:29:27.506Z,27.35
2023-03-11T10:30:27.474Z,27.37
2023-03-11T10:31:27.403Z,27.38
2023-03-11T10:32:27.403Z,27.35
2023-03-11T10:33:27.311Z,27.39
2023-03-11T10:34:27.252Z,27.41
2023-03-11T10:35:27.204Z,27.39
2023-03-11T10:36:27.220Z,27.39
2023-03-11T10:37:33.238Z,27.44
2023-03-11T10:38:28.077Z,27.44
2023-03-11T10:39:27.026Z,27.42
2023-03-11T10:40:26.967Z,27.44
2023-03-11T10:41:26.928Z,27.46
2023-03-11T10:42:26.874Z,27.45
2023-03-11T10:43:26.834Z,27.48
2023-03-11T10:44:26.776Z,27.48
2023-03-11T10:45:26.739Z,27.49
2023-03-11T10:46:26.686Z,27.49
2023-03-11T10:47:26.631Z,27.49
2023-03-11T10:48:26.578Z,27.50
2023-03-11T10:49:26.531Z,27.50
2023-03-11T10:50:26.471Z,27.50
2023-03-11T10:51:26.442Z,27.52
2023-03-11T10:52:26.379Z,27.52
2023-03-11T10:53:26.331Z,27.52
2023-03-11T10:54:26.266Z,27.55
2023-03-11T10:55:26.227Z,27.55
2023-03-11T10:56:26.186Z,27.56
2023-03-11T10:57:26.133Z,27.53
2023-03-11T10:58:26.065Z,27.55
2023-03-11T10:59:26.014Z,27.57
2023-03-11T11:00:25.971Z,27.57
2023-03-11T11:01:25.965Z,27.59
2023-03-11T11:02:25.827Z,27.60
2023-03-11T11:03:25.786Z,27.57
2023-03-11T11:04:25.820Z,27.57
2023-03-11T11:05:25.686Z,27.60
2023-03-11T11:06:25.617Z,27.60
2023-03-11T11:07:25.578Z,27.60
2023-03-11T11:08:25.516Z,27.60
2023-03-11T11:09:26.973Z,27.60
2023-03-11T11:10:25.428Z,27.62
2023-03-11T11:11:25.380Z,27.62
2023-03-11T11:12:25.323Z,27.66
2023-03-11T11:13:25.309Z,27.63
2023-03-11T11:14:25.224Z,27.65
2023-03-11T11:15:25.193Z,27.65
2023-03-11T11:16:25.157Z,27.63
2023-03-11T11:17:25.090Z,27.63
2023-03-11T11:18:25.042Z,27.66
2023-03-11T11:19:24.989Z,27.66
2023-03-11T11:20:24.929Z,27.66
2023-03-11T11:21:24.882Z,27.69
2023-03-11T11:22:24.822Z,27.67
2023-03-11T11:23:24.775Z,27.67
2023-03-11T11:24:24.719Z,27.67
2023-03-11T11:25:24.679Z,27.67
2023-03-11T11:26:24.605Z,27.70
2023-03-11T11:27:24.551Z,27.70
2023-03-11T11:28:24.494Z,27.70
2023-03-11T11:29:24.433Z,27.72
2023-03-11T11:30:24.380Z,27.70
2023-03-11T11:31:24.324Z,27.70
2023-03-11T11:32:24.331Z,27.72
2023-03-11T11:33:24.221Z,27.70
2023-03-11T11:34:24.161Z,27.70
2023-03-11T11:35:24.161Z,27.67
2023-03-11T11:36:24.057Z,27.69
2023-03-11T11:37:24.008Z,27.67
2023-03-11T11:38:23.957Z,27.65
2023-03-11T11:39:23.894Z,27.66
2023-03-11T11:40:23.853Z,27.66
2023-03-11T11:41:23.801Z,27.66
2023-03-11T11:42:23.727Z,27.63
2023-03-11T11:43:23.670Z,27.65
2023-03-11T11:44:23.622Z,27.67
2023-03-11T11:45:23.561Z,27.67
2023-03-11T11:46:23.600Z,27.67
2023-03-11T11:47:23.461Z,27.69
2023-03-11T11:48:23.402Z,27.67
2023-03-11T11:49:23.359Z,27.69
2023-03-11T11:50:23.318Z,27.72
2023-03-11T11:51:23.251Z,27.67
2023-03-11T11:52:23.206Z,27.65
2023-03-11T11:53:23.137Z,27.65
2023-03-11T11:54:23.087Z,27.65
2023-03-11T11:55:23.045Z,27.62
2023-03-11T11:56:22.991Z,27.63
2023-03-11T11:57:23.009Z,27.62
2023-03-11T11:58:22.900Z,27.60
2023-03-11T11:59:22.837Z,27.62
2023-03-11T12:00:22.790Z,27.60
2023-03-11T12:01:22.738Z,27.59
2023-03-11T12:02:22.689Z,27.59
2023-03-11T12:03:22.672Z,27.59
2023-03-11T12:04:22.628Z,27.57
2023-03-11T12:05:22.558Z,27.59
2023-03-11T12:06:22.501Z,27.60
2023-03-11T12:07:22.428Z,27.57
2023-03-11T12:08:22.375Z,27.56
2023-03-11T12:09:22.324Z,27.57
2023-03-11T12:10:24.060Z,27.56
2023-03-11T12:11:22.227Z,27.57
2023-03-11T12:12:22.179Z,27.57
2023-03-11T12:13:22.125Z,27.57
2023-03-11T12:14:22.073Z,27.56
2023-03-11T12:15:22.018Z,27.57
2023-03-11T12:16:21.963Z,27.56
2023-03-11T12:17:21.912Z,27.56
2023-03-11T12:18:21.861Z,27.59
2023-03-11T12:19:21.810Z,27.60
2023-03-11T12:20:21.765Z,27.62
2023-03-11T12:21:21.713Z,27.62
2023-03-11T12:22:21.666Z,27.66
2023-03-11T12:23:21.655Z,27.69
2023-03-11T12:24:21.556Z,27.69
2023-03-11T12:25:21.501Z,27.70
2023-03-11T12:26:21.475Z,27.72
2023-03-11T12:27:21.402Z,27.72
2023-03-11T12:28:21.349Z,27.70
2023-03-11T12:29:21.299Z,27.70
2023-03-11T12:30:21.255Z,27.69
2023-03-11T12:31:21.315Z,27.70
2023-03-11T12:32:21.159Z,27.73
2023-03-11T12:33:21.085Z,27.76
2023-03-11T12:34:21.040Z,27.76
2023-03-11T12:35:20.973Z,27.77
2023-03-11T12:36:20.928Z,27.76
2023-03-11T12:37:20.879Z,27.77
2023-03-11T12:38:20.827Z,27.79
2023-03-11T12:39:20.774Z,27.79
2023-03-11T12:40:20.722Z,27.76
2023-03-11T12:41:21.252Z,27.77
2023-03-11T12:42:20.611Z,27.77
2023-03-11T12:43:20.539Z,27.79
2023-03-11T12:44:20.477Z,27.80
2023-03-11T12:45:20.433Z,27.80
2023-03-11T12:46:20.431Z,27.79
2023-03-11T12:47:20.360Z,27.80
2023-03-11T12:48:20.269Z,27.79
2023-03-11T12:49:20.210Z,27.77
2023-03-11T12:50:20.148Z,27.82
2023-03-11T12:51:20.093Z,27.82
2023-03-11T12:52:20.044Z,27.76
2023-03-11T12:53:19.976Z,27.75
2023-03-11T12:54:19.930Z,27.77
2023-03-11T12:55:19.859Z,27.73
2023-03-11T12:56:19.807Z,27.72
2023-03-11T12:57:19.761Z,27.70
2023-03-11T12:58:19.682Z,27.70
2023-03-11T12:59:19.617Z,27.73
2023-03-11T13:00:19.593Z,27.75
2023-03-11T13:01:19.547Z,27.77
2023-03-11T13:02:19.468Z,27.83
2023-03-11T13:03:19.389Z,27.80
2023-03-11T13:04:19.332Z,27.84
2023-03-11T13:05:19.280Z,27.83
2023-03-11T13:06:19.215Z,27.86
2023-03-11T13:07:19.152Z,27.82
2023-03-11T13:08:19.100Z,27.79
2023-03-11T13:09:19.034Z,27.82
2023-03-11T13:10:18.984Z,27.80
2023-03-11T13:11:18.919Z,27.77
2023-03-11T13:12:18.868Z,27.80
2023-03-11T13:13:18.802Z,27.79
2023-03-11T13:14:18.763Z,27.80
2023-03-11T13:15:18.694Z,27.86
2023-03-11T13:16:18.662Z,27.86
2023-03-11T13:17:18.577Z,27.87
2023-03-11T13:18:18.530Z,27.90
2023-03-11T13:19:18.459Z,27.94
2023-03-11T13:20:18.391Z,27.90
2023-03-11T13:21:18.355Z,27.92
2023-03-11T13:22:18.288Z,27.87
2023-03-11T13:23:18.226Z,27.86
2023-03-11T13:24:18.161Z,27.92
2023-03-11T13:25:18.108Z,27.96
2023-03-11T13:26:18.061Z,28.00
2023-03-11T13:27:18.025Z,27.97
2023-03-11T13:28:17.946Z,28.00
2023-03-11T13:29:17.873Z,28.01
2023-03-11T13:30:17.830Z,28.07
2023-03-11T13:31:17.776Z,28.05